Time;durP1;ratioP1;P1;durP2;ratioP2;P2;SDS_P1;SDS_P2;PMS_P1;PMS_P2;Temp;Humidity;BMP_temperature;BMP_pressure;BME280_temperature;BME280_humidity;BME280_pressure;Samples;Min_cycle;Max_cycle;Signal;HPM_P1;HPM_P2
2023/02/01 00:01:22;;;;;;;20.35;2.58;;;5.00;90.10;;;;;;5028947;28;20060;-69
2023/02/01 00:03:48;;;;;;;10.52;2.40;;;5.00;89.70;;;;;;5032171;28;20484;-68
2023/02/01 00:06:13;;;;;;;22.48;3.35;;;5.10;88.90;;;;;;5027437;28;20099;-68
2023/02/01 00:08:39;;;;;;;13.55;2.88;;;5.10;89.00;;;;;;5025803;28;20481;-68
2023/02/01 00:11:10;;;;;;;15.68;3.05;;;5.00;89.80;;;;;;5025022;28;20108;-67
2023/02/01 00:13:40;;;;;;;21.52;3.33;;;4.90;90.20;;;;;;5023022;28;20021;-68
2023/02/01 00:16:08;;;;;;;20.13;3.65;;;5.00;90.10;;;;;;5027316;28;20532;-68
2023/02/01 00:18:34;;;;;;;20.40;3.63;;;4.90;90.60;;;;;;5025235;28;20037;-67
2023/02/01 00:21:00;;;;;;;13.15;3.42;;;5.00;90.30;;;;;;5033990;28;20036;-68
2023/02/01 00:23:26;;;;;;;17.27;3.30;;;5.00;90.30;;;;;;5023347;28;20505;-68
2023/02/01 00:25:52;;;;;;;16.58;3.45;;;4.90;90.50;;;;;;5018286;28;20021;-68
2023/02/01 00:28:17;;;;;;;22.73;3.65;;;4.90;90.60;;;;;;5021713;28;20049;-68
2023/02/01 00:30:42;;;;;;;18.13;3.38;;;5.00;90.20;;;;;;5038168;28;20489;-68
2023/02/01 00:33:08;;;;;;;24.90;3.20;;;5.00;90.20;;;;;;5029323;28;20037;-68
2023/02/01 00:35:34;;;;;;;28.88;4.30;;;5.00;90.20;;;;;;5031299;28;20029;-68
2023/02/01 00:38:00;;;;;;;18.70;3.75;;;4.90;90.40;;;;;;5023465;28;20065;-68
2023/02/01 00:40:26;;;;;;;23.45;3.67;;;5.00;90.40;;;;;;5022103;28;20076;-68
2023/02/01 00:42:51;;;;;;;26.45;3.80;;;5.00;90.30;;;;;;5024910;28;20034;-68
2023/02/01 00:45:17;;;;;;;26.48;4.03;;;5.00;90.50;;;;;;5022267;28;20033;-68
2023/02/01 00:47:43;;;;;;;20.00;3.05;;;5.00;90.40;;;;;;5024236;28;20168;-68
2023/02/01 00:50:09;;;;;;;13.02;2.97;;;5.00;90.40;;;;;;5031016;28;20025;-68
2023/02/01 00:52:34;;;;;;;21.75;3.50;;;5.10;90.20;;;;;;5026538;28;20037;-68
2023/02/01 00:55:00;;;;;;;17.67;3.45;;;5.00;90.40;;;;;;5025234;28;20030;-68
2023/02/01 00:57:25;;;;;;;24.98;4.05;;;5.10;90.00;;;;;;5027606;28;20412;-69
2023/02/01 00:59:50;;;;;;;17.15;3.15;;;5.20;89.70;;;;;;5020111;28;20053;-68
2023/02/01 01:02:16;;;;;;;21.30;3.33;;;5.10;89.80;;;;;;5021412;28;20061;-68
2023/02/01 01:04:41;;;;;;;17.40;2.83;;;5.10;90.00;;;;;;5026029;28;20041;-68
2023/02/01 01:07:07;;;;;;;21.88;3.75;;;5.10;90.00;;;;;;5021796;28;20109;-68
2023/02/01 01:09:32;;;;;;;27.23;3.67;;;5.10;90.30;;;;;;5027847;28;20048;-69
2023/02/01 01:12:02;;;;;;;15.82;4.07;;;5.00;90.40;;;;;;5028260;28;20139;-68
2023/02/01 01:14:31;;;;;;;16.58;3.25;;;5.10;90.10;;;;;;5023413;28;20424;-68
2023/02/01 01:16:56;;;;;;;22.02;4.03;;;5.00;90.40;;;;;;5031206;28;20033;-68
2023/02/01 01:19:22;;;;;;;22.92;3.63;;;5.00;90.70;;;;;;5025537;28;20041;-68
2023/02/01 01:21:47;;;;;;;16.00;3.25;;;5.00;90.70;;;;;;5018763;28;20152;-68
2023/02/01 01:24:13;;;;;;;27.67;4.25;;;5.00;90.70;;;;;;5019657;28;20057;-67
2023/02/01 01:26:38;;;;;;;18.45;3.53;;;5.00;90.70;;;;;;5027116;28;20378;-68
2023/02/01 01:29:04;;;;;;;23.25;3.95;;;5.00;90.60;;;;;;5025633;28;20564;-68
2023/02/01 01:31:30;;;;;;;21.52;3.13;;;5.00;90.60;;;;;;5026008;28;20033;-68
2023/02/01 01:33:58;;;;;;;24.42;3.58;;;5.00;90.80;;;;;;5028083;28;20057;-68
2023/02/01 01:36:24;;;;;;;25.20;3.97;;;5.00;90.50;;;;;;5028541;28;20029;-68
2023/02/01 01:38:50;;;;;;;19.73;3.80;;;5.00;90.80;;;;;;5034884;28;20048;-68
2023/02/01 01:41:25;;;;;;;24.27;4.05;;;5.00;90.80;;;;;;5027288;28;20109;-68
2023/02/01 01:44:32;;;;;;;24.17;4.50;;;5.10;90.60;;;;;;5020992;28;20038;-68
2023/02/01 01:46:57;;;;;;;22.15;3.05;;;5.10;90.30;;;;;;5021189;28;20076;-68
2023/02/01 01:49:25;;;;;;;24.88;4.03;;;5.00;90.80;;;;;;5028378;28;20072;-68
2023/02/01 01:51:54;;;;;;;25.45;4.35;;;5.10;90.60;;;;;;5025276;28;20033;-68
2023/02/01 01:54:32;;;;;;;22.17;4.22;;;5.10;90.60;;;;;;5028684;28;20532;-68
2023/02/01 01:57:03;;;;;;;22.60;4.18;;;5.10;90.60;;;;;;5028261;28;20092;-68
2023/02/01 01:59:29;;;;;;;;;;;5.10;90.50;;;;;;5028396;28;20038;-68
2023/02/01 02:01:55;;;;;;;24.15;3.45;;;5.10;90.30;;;;;;5023955;28;20300;-68
2023/02/01 02:04:22;;;;;;;20.73;4.05;;;5.20;90.30;;;;;;5026556;28;20385;-68
2023/02/01 02:06:55;;;;;;;19.95;3.38;;;5.10;90.60;;;;;;5034937;28;20394;-68
2023/02/01 02:09:20;;;;;;;21.92;4.15;;;5.10;90.50;;;;;;5027283;28;20034;-68
2023/02/01 02:11:46;;;;;;;21.55;3.95;;;5.10;90.60;;;;;;5030232;28;20036;-67
2023/02/01 02:14:15;;;;;;;22.92;3.85;;;5.10;90.50;;;;;;5028140;28;20033;-68
2023/02/01 02:16:46;;;;;;;20.00;4.00;;;5.10;91.30;;;;;;5024090;28;20383;-68
2023/02/01 02:19:53;;;;;;;28.08;4.18;;;5.10;91.00;;;;;;5025369;28;20034;-67
2023/02/01 02:22:56;;;;;;;21.02;3.35;;;5.10;90.90;;;;;;5038786;28;20034;-68
2023/02/01 02:25:58;;;;;;;19.33;3.70;;;5.10;90.80;;;;;;5023946;28;20080;-69
2023/02/01 02:29:00;;;;;;;31.40;5.13;;;5.20;90.30;;;;;;5019777;28;20038;-68
2023/02/01 02:31:54;;;;;;;22.70;3.55;;;5.20;90.40;;;;;;5020586;28;20470;-68
2023/02/01 02:34:28;;;;;;;25.23;4.10;;;5.30;89.90;;;;;;5017504;28;20037;-68
2023/02/01 02:37:31;;;;;;;26.85;4.43;;;5.30;90.20;;;;;;5016734;28;20049;-68
2023/02/01 02:40:06;;;;;;;24.00;4.13;;;5.30;90.30;;;;;;5032347;28;20080;-68
2023/02/01 02:49:05;;;;;;;25.25;3.25;;;5.10;90.60;;;;;;5026713;28;21254;-68
2023/02/01 02:54:46;;;;;;;16.75;2.90;;;5.10;90.10;;;;;;5025420;28;20029;-68
2023/02/01 03:05:36;;;;;;;18.48;3.67;;;4.80;93.30;;;;;;5027940;28;20040;-68
2023/02/01 03:08:04;;;;;;;18.35;3.70;;;4.70;93.50;;;;;;5025504;28;20196;-70
2023/02/01 03:10:39;;;;;;;23.58;4.05;;;4.70;93.90;;;;;;5027798;28;20109;-69
2023/02/01 03:13:12;;;;;;;18.75;3.60;;;4.60;93.90;;;;;;5027632;28;20037;-69
2023/02/01 03:16:10;;;;;;;23.05;3.55;;;4.60;93.90;;;;;;5023587;28;20037;-68
2023/02/01 03:19:06;;;;;;;19.77;3.60;;;4.70;93.30;;;;;;5029520;28;20167;-68
2023/02/01 03:21:57;;;;;;;17.63;2.78;;;4.60;94.60;;;;;;5027793;28;20108;-68
2023/02/01 03:24:35;;;;;;;13.10;2.42;;;4.50;95.10;;;;;;5022025;28;20478;-69
2023/02/01 03:27:13;;;;;;;12.70;2.28;;;4.30;95.70;;;;;;5026852;28;20037;-68
2023/02/01 03:29:49;;;;;;;16.00;2.35;;;4.20;95.90;;;;;;5031673;28;20026;-69
2023/02/01 03:32:15;;;;;;;12.93;2.67;;;4.10;96.10;;;;;;5024644;28;20038;-69
2023/02/01 03:34:41;;;;;;;14.07;2.83;;;4.10;96.60;;;;;;5029969;28;20045;-69
2023/02/01 03:37:13;;;;;;;13.52;1.88;;;4.00;96.80;;;;;;5037217;28;20037;-69
2023/02/01 03:39:56;;;;;;;5.47;1.23;;;3.40;96.50;;;;;;5031691;28;20073;-68
2023/02/01 03:42:33;;;;;;;3.50;0.75;;;3.40;97.10;;;;;;5031438;28;20029;-68
2023/02/01 03:45:05;;;;;;;4.63;1.10;;;3.40;97.20;;;;;;5031039;28;20084;-68
2023/02/01 03:47:36;;;;;;;6.70;1.30;;;3.40;97.10;;;;;;5025607;28;20429;-68
2023/02/01 03:50:13;;;;;;;11.02;1.50;;;3.30;97.50;;;;;;5026612;28;20393;-68
2023/02/01 03:52:46;;;;;;;12.77;1.75;;;3.40;97.60;;;;;;5026685;28;20112;-68
2023/02/01 03:55:14;;;;;;;9.52;1.88;;;3.50;97.50;;;;;;5030563;28;20536;-69
2023/02/01 03:57:45;;;;;;;8.02;2.17;;;3.60;97.50;;;;;;5027949;28;20049;-68
2023/02/01 04:00:23;;;;;;;11.52;2.00;;;3.60;97.60;;;;;;5025777;28;20113;-69
2023/02/01 04:02:49;;;;;;;16.55;2.22;;;3.60;97.50;;;;;;5024829;28;20505;-69
2023/02/01 04:05:15;;;;;;;14.43;2.40;;;3.70;97.50;;;;;;5019943;28;20069;-69
2023/02/01 04:07:40;;;;;;;9.45;2.25;;;3.70;97.70;;;;;;5028775;28;20182;-68
2023/02/01 04:10:07;;;;;;;11.35;2.55;;;3.70;97.80;;;;;;5025713;28;20029;-68
2023/02/01 04:12:32;;;;;;;6.93;1.23;;;3.80;97.40;;;;;;5024263;28;20069;-68
2023/02/01 04:14:58;;;;;;;8.00;1.55;;;3.80;96.70;;;;;;5026579;28;20045;-68
2023/02/01 04:17:23;;;;;;;10.82;1.95;;;3.80;96.50;;;;;;5025854;28;20041;-69
2023/02/01 04:19:49;;;;;;;5.75;1.23;;;3.70;96.50;;;;;;5027115;28;21727;-68
2023/02/01 04:22:14;;;;;;;3.35;1.20;;;3.60;97.00;;;;;;5027288;28;20120;-69
2023/02/01 04:24:40;;;;;;;4.75;0.95;;;3.50;96.90;;;;;;5024250;28;20398;-68
2023/02/01 04:27:05;;;;;;;4.18;0.98;;;3.50;97.10;;;;;;5025013;28;20092;-68
2023/02/01 04:29:31;;;;;;;4.75;0.70;;;3.40;97.20;;;;;;5025130;28;20124;-68
2023/02/01 04:31:56;;;;;;;5.80;0.73;;;3.30;97.30;;;;;;5024468;28;20033;-68
2023/02/01 04:34:24;;;;;;;3.40;0.90;;;3.30;97.40;;;;;;5039333;28;20030;-68
2023/02/01 04:36:50;;;;;;;2.05;0.77;;;3.20;97.40;;;;;;5024915;28;20025;-68
2023/02/01 04:39:15;;;;;;;4.90;0.85;;;3.10;97.60;;;;;;5031986;28;20084;-68
2023/02/01 04:41:41;;;;;;;4.72;1.13;;;3.10;98.00;;;;;;5029081;28;20033;-68
2023/02/01 04:44:12;;;;;;;6.75;1.25;;;3.10;98.10;;;;;;5028924;28;20096;-68
2023/02/01 04:46:38;;;;;;;5.28;1.20;;;3.10;98.20;;;;;;5031377;28;20107;-68
2023/02/01 04:49:03;;;;;;;9.10;1.55;;;3.00;98.40;;;;;;5026761;28;20029;-69
2023/02/01 04:51:30;;;;;;;7.30;1.30;;;3.10;98.60;;;;;;5028541;28;20123;-68
2023/02/01 04:53:55;;;;;;;7.03;1.30;;;3.10;98.70;;;;;;5023196;28;20095;-68
2023/02/01 04:56:21;;;;;;;9.20;1.75;;;3.10;98.90;;;;;;5024996;28;20747;-68
2023/02/01 04:58:46;;;;;;;3.50;1.38;;;3.10;98.90;;;;;;5033696;28;20373;-68
2023/02/01 05:01:12;;;;;;;14.77;1.63;;;3.10;98.80;;;;;;5025989;28;20577;-68
2023/02/01 05:03:37;;;;;;;11.73;1.92;;;3.20;98.80;;;;;;5028800;28;20025;-68
2023/02/01 05:06:04;;;;;;;7.20;2.42;;;3.10;98.90;;;;;;5027684;28;20041;-68
2023/02/01 05:08:30;;;;;;;13.00;2.03;;;3.30;99.00;;;;;;5022719;28;20567;-68
2023/02/01 05:10:56;;;;;;;13.68;2.20;;;3.30;98.90;;;;;;5022863;28;20029;-68
2023/02/01 05:16:06;;;;;;;9.82;2.58;;;3.40;98.90;;;;;;5024415;28;20103;-68
2023/02/01 05:18:32;;;;;;;11.93;2.15;;;3.40;99.00;;;;;;5025786;28;20394;-67
2023/02/01 05:20:57;;;;;;;9.23;1.85;;;3.40;99.00;;;;;;5025070;28;20047;-68
2023/02/01 05:23:23;;;;;;;5.20;1.60;;;3.30;98.70;;;;;;5025207;28;20049;-68
2023/02/01 05:25:48;;;;;;;5.40;1.50;;;3.30;98.20;;;;;;5022238;28;20061;-69
2023/02/01 05:28:14;;;;;;;5.07;1.00;;;3.20;98.40;;;;;;5027041;28;20470;-68
2023/02/01 05:30:39;;;;;;;6.88;1.58;;;3.10;98.50;;;;;;5028519;28;20155;-69
2023/02/01 05:33:05;;;;;;;11.00;1.55;;;3.10;98.60;;;;;;5025541;28;20377;-71
2023/02/01 05:35:30;;;;;;;6.47;1.42;;;3.10;98.70;;;;;;5024412;28;20056;-71
2023/02/01 05:37:56;;;;;;;6.65;1.70;;;3.10;98.80;;;;;;5022034;28;20490;-71
2023/02/01 05:40:21;;;;;;;6.57;1.50;;;3.10;98.80;;;;;;5023147;28;20465;-71
2023/02/01 05:42:47;;;;;;;10.05;2.33;;;3.10;98.80;;;;;;5019711;28;20076;-71
2023/02/01 05:45:13;;;;;;;9.48;2.00;;;3.10;98.90;;;;;;5025147;28;20038;-70
2023/02/01 05:47:38;;;;;;;9.30;1.92;;;3.20;98.90;;;;;;5018266;28;20467;-71
2023/02/01 05:50:04;;;;;;;8.63;1.70;;;3.20;99.00;;;;;;5022190;28;20041;-70
2023/02/01 05:52:30;;;;;;;5.53;1.27;;;3.30;99.00;;;;;;5022523;28;20080;-71
2023/02/01 05:54:56;;;;;;;6.20;1.08;;;3.30;98.70;;;;;;5022168;28;20081;-71
2023/02/01 05:57:21;;;;;;;5.20;1.00;;;3.30;98.60;;;;;;5019443;28;20039;-71
2023/02/01 05:59:48;;;;;;;6.55;1.60;;;3.20;98.70;;;;;;5025491;28;20590;-71
2023/02/01 06:02:15;;;;;;;7.93;1.67;;;3.20;98.90;;;;;;5025038;28;20033;-71
2023/02/01 06:04:40;;;;;;;7.00;1.38;;;3.20;98.90;;;;;;5025845;28;20540;-72
2023/02/01 06:07:07;;;;;;;4.43;1.30;;;3.10;99.00;;;;;;5023019;28;20034;-72
2023/02/01 06:09:33;;;;;;;7.97;1.40;;;3.20;99.00;;;;;;5025682;28;20119;-71
2023/02/01 06:12:00;;;;;;;4.97;1.65;;;3.20;99.00;;;;;;5016233;28;20109;-71
2023/02/01 06:14:26;;;;;;;5.38;1.10;;;3.20;99.10;;;;;;5024116;28;20030;-71
2023/02/01 06:16:52;;;;;;;7.75;1.88;;;3.20;99.30;;;;;;5018303;28;20095;-70
2023/02/01 06:19:17;;;;;;;7.07;1.10;;;3.30;99.30;;;;;;5028852;28;20037;-71
2023/02/01 06:21:42;;;;;;;4.43;1.15;;;3.30;99.30;;;;;;5023500;28;20069;-71
2023/02/01 06:24:08;;;;;;;5.90;1.20;;;3.30;99.30;;;;;;5020095;28;20050;-71
2023/02/01 06:26:34;;;;;;;3.78;0.82;;;3.20;99.20;;;;;;5020566;28;20434;-71
2023/02/01 06:28:59;;;;;;;4.20;1.02;;;3.20;99.10;;;;;;5022532;28;20118;-71
2023/02/01 06:31:25;;;;;;;4.40;1.02;;;3.20;99.00;;;;;;5028076;28;20132;-71
2023/02/01 06:33:51;;;;;;;5.70;0.95;;;3.20;99.10;;;;;;5023225;28;20104;-70
2023/02/01 06:36:18;;;;;;;8.23;1.45;;;3.30;99.10;;;;;;5027130;28;20065;-70
2023/02/01 06:38:44;;;;;;;2.53;0.95;;;3.40;98.70;;;;;;5023500;28;20029;-71
2023/02/01 06:41:10;;;;;;;3.70;0.82;;;3.40;98.60;;;;;;5026721;28;20044;-70
2023/02/01 06:43:37;;;;;;;6.82;0.98;;;3.30;98.60;;;;;;5032767;28;20133;-68
2023/02/01 06:46:07;;;;;;;3.72;0.90;;;3.20;98.70;;;;;;5021062;28;20382;-68
2023/02/01 06:48:33;;;;;;;5.30;1.05;;;3.20;98.80;;;;;;5028583;28;20488;-68
2023/02/01 06:50:58;;;;;;;3.17;0.95;;;3.20;98.90;;;;;;5024087;28;20120;-70
2023/02/01 06:53:24;;;;;;;5.18;1.10;;;3.30;98.90;;;;;;5030088;28;20112;-69
2023/02/01 06:55:54;;;;;;;9.50;1.67;;;3.40;98.90;;;;;;5022163;28;20464;-70
2023/02/01 06:58:20;;;;;;;8.13;1.48;;;3.40;98.90;;;;;;5022392;28;20589;-70
2023/02/01 07:00:45;;;;;;;12.35;1.83;;;3.50;98.80;;;;;;5025618;28;20116;-71
2023/02/01 07:03:11;;;;;;;12.68;2.08;;;3.60;98.80;;;;;;5027293;28;20120;-70
2023/02/01 07:05:37;;;;;;;17.65;2.28;;;3.60;98.80;;;;;;5022941;28;20068;-70
2023/02/01 07:08:02;;;;;;;12.50;2.67;;;3.60;98.90;;;;;;5023101;28;20033;-70
2023/02/01 07:10:28;;;;;;;12.05;2.03;;;3.70;98.90;;;;;;5023514;28;20389;-74
2023/02/01 07:12:57;;;;;;;18.83;2.40;;;3.80;98.70;;;;;;5022046;28;20030;-69
2023/02/01 07:15:22;;;;;;;14.35;2.50;;;3.90;98.60;;;;;;5024695;28;20029;-70
2023/02/01 07:17:48;;;;;;;16.05;2.67;;;3.90;98.50;;;;;;5019415;28;20041;-69
2023/02/01 07:20:15;;;;;;;15.05;3.42;;;3.90;98.60;;;;;;5027794;28;20022;-70
2023/02/01 07:22:40;;;;;;;23.30;3.10;;;4.00;98.50;;;;;;5025253;28;20049;-70
2023/02/01 07:25:06;;;;;;;22.52;3.47;;;4.10;98.50;;;;;;5020547;28;20481;-70
2023/02/01 07:27:34;;;;;;;20.27;3.85;;;4.20;98.30;;;;;;5018415;28;20034;-70
2023/02/01 07:30:02;;;;;;;18.92;3.22;;;4.20;98.30;;;;;;5021918;28;20030;-70
2023/02/01 07:32:28;;;;;;;16.15;2.65;;;4.30;98.20;;;;;;5025310;28;20033;-70
2023/02/01 07:34:53;;;;;;;18.13;2.92;;;4.30;98.20;;;;;;5029991;28;20026;-70
2023/02/01 07:37:19;;;;;;;13.20;2.20;;;4.30;97.90;;;;;;5025668;28;20036;-70
2023/02/01 07:39:44;;;;;;;13.88;2.75;;;4.20;97.50;;;;;;5024743;28;20469;-71
2023/02/01 07:42:10;;;;;;;15.88;2.50;;;4.20;97.40;;;;;;5026355;28;20048;-67
2023/02/01 07:44:35;;;;;;;11.80;2.20;;;4.10;97.90;;;;;;5022389;28;20040;-66
2023/02/01 07:47:01;;;;;;;18.75;3.47;;;4.20;98.30;;;;;;5019106;28;20021;-65
2023/02/01 07:49:26;;;;;;;23.77;3.47;;;4.10;98.30;;;;;;5025444;28;20156;-69
2023/02/01 07:51:52;;;;;;;17.58;3.10;;;4.10;98.60;;;;;;5024317;28;20017;-67
2023/02/01 07:54:17;;;;;;;17.48;3.10;;;4.10;98.90;;;;;;5028736;28;20029;-67
2023/02/01 07:56:43;;;;;;;16.10;3.67;;;4.10;99.00;;;;;;5022972;28;20030;-67
2023/02/01 07:59:08;;;;;;;24.58;4.22;;;4.10;99.00;;;;;;5025995;28;20052;-66
2023/02/01 08:01:34;;;;;;;21.50;3.38;;;4.20;99.20;;;;;;5017926;28;20104;-67
2023/02/01 08:04:02;;;;;;;22.58;3.30;;;4.30;98.90;;;;;;5009426;28;20033;-68
2023/02/01 08:06:30;;;;;;;18.65;3.38;;;4.30;98.70;;;;;;5021883;28;20033;-67
2023/02/01 08:08:56;;;;;;;21.75;3.10;;;4.30;98.50;;;;;;5027566;28;20088;-67
2023/02/01 08:11:23;;;;;;;30.10;4.15;;;4.40;98.20;;;;;;5028980;28;21233;-66
2023/02/01 08:13:48;;;;;;;21.17;3.30;;;4.50;97.70;;;;;;5026068;28;20033;-66
2023/02/01 08:16:16;;;;;;;26.70;3.72;;;4.50;97.50;;;;;;5022798;28;20382;-66
2023/02/01 08:18:42;;;;;;;17.15;3.45;;;4.50;97.60;;;;;;5026827;28;20495;-67
2023/02/01 08:21:10;;;;;;;23.30;4.88;;;4.50;97.20;;;;;;5029594;28;20102;-66
2023/02/01 08:23:37;;;;;;;22.45;3.70;;;4.60;97.40;;;;;;5022606;28;20122;-66
2023/02/01 08:26:14;;;;;;;20.63;3.35;;;4.50;97.40;;;;;;5027263;28;20038;-67
2023/02/01 08:28:41;;;;;;;20.60;3.35;;;4.50;97.40;;;;;;5028434;28;20525;-66
2023/02/01 08:31:09;;;;;;;20.63;2.97;;;4.50;97.40;;;;;;5028752;28;20040;-66
2023/02/01 08:33:37;;;;;;;22.65;3.47;;;4.50;97.50;;;;;;5016098;28;20076;-67
2023/02/01 08:36:04;;;;;;;20.70;3.15;;;4.60;97.00;;;;;;5019318;28;20048;-66
2023/02/01 08:38:29;;;;;;;21.45;3.05;;;4.60;96.60;;;;;;5031746;28;20076;-66
2023/02/01 08:40:55;;;;;;;24.50;4.05;;;4.70;96.50;;;;;;5025139;28;20085;-67
2023/02/01 08:43:20;;;;;;;16.35;3.03;;;4.80;95.50;;;;;;5027401;28;20393;-66
2023/02/01 08:45:46;;;;;;;19.20;3.15;;;4.90;95.30;;;;;;5028184;28;20033;-66
2023/02/01 08:48:11;;;;;;;24.38;3.65;;;4.90;95.40;;;;;;5030452;28;20115;-66
2023/02/01 08:50:37;;;;;;;18.65;3.30;;;4.90;95.40;;;;;;5028250;28;20064;-66
2023/02/01 08:53:05;;;;;;;14.48;2.30;;;4.90;95.70;;;;;;5016259;28;20048;-66
2023/02/01 08:55:31;;;;;;;19.92;2.75;;;4.90;95.60;;;;;;5027488;28;20393;-66
2023/02/01 08:57:56;;;;;;;28.08;3.63;;;5.00;95.70;;;;;;5012255;28;20038;-67
2023/02/01 09:00:22;;;;;;;15.27;3.05;;;5.00;95.70;;;;;;5019204;28;20038;-67
2023/02/01 09:02:47;;;;;;;19.10;2.97;;;4.90;96.00;;;;;;5024100;28;20622;-67
2023/02/01 09:05:16;;;;;;;12.68;3.00;;;4.90;95.50;;;;;;5028146;28;20532;-67
2023/02/01 09:07:41;;;;;;;18.05;2.97;;;5.00;95.20;;;;;;5021932;28;20040;-67
2023/02/01 09:10:07;;;;;;;15.95;2.60;;;4.90;95.40;;;;;;5026592;28;20042;-67
2023/02/01 09:12:34;;;;;;;19.15;2.95;;;5.00;95.20;;;;;;5023203;28;20080;-66
2023/02/01 09:15:00;;;;;;;24.25;3.47;;;5.00;95.40;;;;;;5029665;28;20036;-68
2023/02/01 09:17:26;;;;;;;17.63;3.28;;;5.00;95.50;;;;;;5019301;28;20046;-69
2023/02/01 09:19:52;;;;;;;20.23;3.25;;;5.10;95.70;;;;;;5023048;28;20041;-68
2023/02/01 09:22:17;;;;;;;15.88;3.05;;;5.30;95.50;;;;;;5030068;28;20477;-68
2023/02/01 09:24:43;;;;;;;26.98;3.83;;;5.30;94.80;;;;;;5012594;28;20437;-69
2023/02/01 09:27:08;;;;;;;19.60;2.97;;;5.30;94.60;;;;;;5008224;28;20099;-68
2023/02/01 09:29:34;;;;;;;31.20;4.13;;;5.30;94.60;;;;;;5010104;28;20029;-67
2023/02/01 09:31:59;;;;;;;17.75;4.05;;;5.30;95.00;;;;;;5018164;28;20549;-69
2023/02/01 09:34:25;;;;;;;14.40;2.83;;;5.20;95.20;;;;;;5023285;28;20064;-71
2023/02/01 09:36:50;;;;;;;20.45;3.50;;;5.30;94.90;;;;;;5021715;28;20481;-68
2023/02/01 09:39:16;;;;;;;20.58;3.13;;;5.30;94.50;;;;;;5016535;28;20041;-68
2023/02/01 09:42:12;;;;;;;19.33;3.30;;;5.40;94.80;;;;;;5022881;28;20030;-67
2023/02/01 09:44:47;;;;;;;16.88;3.40;;;5.50;94.20;;;;;;5019518;28;20038;-67
2023/02/01 09:47:19;;;;;;;18.42;3.17;;;5.50;93.60;;;;;;5018642;28;20128;-69
2023/02/01 09:49:56;;;;;;;15.23;2.53;;;5.60;93.30;;;;;;5016044;28;22750;-67
2023/02/01 09:52:34;;;;;;;19.33;2.83;;;5.60;93.10;;;;;;5020614;28;20145;-68
2023/02/01 09:55:06;;;;;;;15.25;3.92;;;5.70;93.00;;;;;;5021040;28;20063;-69
2023/02/01 09:57:55;;;;;;;15.18;2.60;;;5.60;93.40;;;;;;5020218;28;20064;-68
2023/02/01 10:00:29;;;;;;;16.67;3.42;;;5.60;93.30;;;;;;5017395;28;20389;-68
2023/02/01 10:02:56;;;;;;;20.30;3.03;;;5.60;93.40;;;;;;5018986;28;20037;-68
2023/02/01 10:05:51;;;;;;;22.58;3.08;;;5.60;93.20;;;;;;5024576;28;20022;-67
2023/02/01 10:08:33;;;;;;;13.60;2.08;;;5.60;93.30;;;;;;5016573;28;20056;-67
2023/02/01 10:11:15;;;;;;;14.70;2.92;;;5.70;93.60;;;;;;5025280;28;20126;-67
2023/02/01 10:14:15;;;;;;;21.33;3.83;;;5.70;93.50;;;;;;5019835;28;20048;-67
2023/02/01 10:16:54;;;;;;;19.52;3.20;;;5.80;93.00;;;;;;5020754;28;20033;-68
2023/02/01 10:19:27;;;;;;;16.83;3.28;;;5.90;92.70;;;;;;5019112;28;20041;-67
2023/02/01 10:22:13;;;;;;;18.20;3.08;;;5.90;92.70;;;;;;5021908;28;20033;-68
2023/02/01 10:24:44;;;;;;;18.13;3.45;;;6.00;92.10;;;;;;5019989;28;20429;-68
2023/02/01 10:27:20;;;;;;;19.35;2.97;;;6.00;92.00;;;;;;5015435;28;20049;-67
2023/02/01 10:29:54;;;;;;;9.48;2.38;;;6.00;91.80;;;;;;5017481;28;20044;-67
2023/02/01 10:32:24;;;;;;;21.98;2.97;;;6.10;91.40;;;;;;5017152;28;20037;-68
2023/02/01 10:34:58;;;;;;;12.85;2.42;;;6.00;92.10;;;;;;5024619;28;20950;-67
2023/02/01 10:37:31;;;;;;;18.85;3.33;;;6.00;91.30;;;;;;5020235;28;20069;-68
2023/02/01 10:40:12;;;;;;;23.50;3.38;;;6.00;91.70;;;;;;5019464;28;20041;-68
2023/02/01 10:42:39;;;;;;;19.58;3.67;;;6.00;91.90;;;;;;5024342;28;20091;-68
2023/02/01 10:45:06;;;;;;;17.65;2.70;;;6.00;92.30;;;;;;5026940;28;20048;-67
2023/02/01 10:47:32;;;;;;;16.52;3.28;;;6.00;92.10;;;;;;5025310;28;20036;-67
2023/02/01 10:50:31;;;;;;;19.05;3.60;;;6.00;91.60;;;;;;5018049;28;20030;-66
2023/02/01 10:53:09;;;;;;;19.13;3.13;;;6.10;91.50;;;;;;5026419;28;20040;-67
2023/02/01 10:56:08;;;;;;;14.40;2.95;;;6.10;91.90;;;;;;5024326;28;20555;-67
2023/02/01 10:58:36;;;;;;;14.95;2.50;;;6.10;91.80;;;;;;5022413;28;20490;-67
2023/02/01 11:01:15;;;;;;;14.13;2.90;;;5.90;92.50;;;;;;5018399;28;20045;-66
2023/02/01 11:03:58;;;;;;;22.05;3.10;;;5.80;93.30;;;;;;5019740;28;20029;-67
2023/02/01 11:06:54;;;;;;;13.90;2.80;;;5.80;93.60;;;;;;5022179;28;20038;-67
2023/02/01 11:09:24;;;;;;;19.70;3.30;;;5.80;93.60;;;;;;5015343;28;20046;-68
2023/02/01 11:11:50;;;;;;;19.80;2.97;;;5.80;93.70;;;;;;5024858;28;20037;-67
2023/02/01 11:14:24;;;;;;;13.38;2.85;;;5.70;93.70;;;;;;5027372;28;20037;-67
2023/02/01 11:16:57;;;;;;;13.35;2.25;;;5.70;93.90;;;;;;5028852;28;20091;-66
2023/02/01 11:19:23;;;;;;;14.60;3.35;;;5.60;94.20;;;;;;5025834;28;20042;-67
2023/02/01 11:21:54;;;;;;;14.82;2.78;;;5.60;94.40;;;;;;5031647;28;20075;-66
2023/02/01 11:24:29;;;;;;;17.55;3.53;;;5.60;94.60;;;;;;5019303;28;20080;-68
2023/02/01 11:27:01;;;;;;;16.42;2.78;;;5.60;94.90;;;;;;5020327;28;20041;-67
2023/02/01 11:29:38;;;;;;;19.30;3.67;;;5.60;94.80;;;;;;5030038;28;20052;-67
2023/02/01 11:32:05;;;;;;;21.33;3.30;;;5.60;94.70;;;;;;5026824;28;20087;-67
2023/02/01 11:34:42;;;;;;;18.92;3.70;;;5.50;94.90;;;;;;5028126;28;20418;-67
2023/02/01 11:37:28;;;;;;;20.00;3.90;;;5.50;95.00;;;;;;5029931;28;20390;-67
2023/02/01 11:40:03;;;;;;;16.55;3.72;;;5.50;94.70;;;;;;5027616;28;20034;-67
2023/02/01 11:42:29;;;;;;;17.08;3.47;;;5.40;94.90;;;;;;5029761;28;20036;-69
2023/02/01 11:45:19;;;;;;;15.73;2.90;;;5.40;95.30;;;;;;5031842;28;20082;-66
2023/02/01 11:47:45;;;;;;;16.48;2.50;;;5.30;95.20;;;;;;5029458;28;20037;-66
2023/02/01 11:50:22;;;;;;;6.50;1.95;;;5.30;95.20;;;;;;5027170;28;20128;-66
2023/02/01 11:53:12;;;;;;;3.53;1.63;;;5.20;95.00;;;;;;5028154;28;20409;-67
2023/02/01 11:56:03;;;;;;;3.55;1.25;;;5.00;95.30;;;;;;5027906;28;20373;-71
2023/02/01 11:59:09;;;;;;;7.93;1.30;;;4.80;95.80;;;;;;5026179;28;20409;-67
2023/02/01 12:01:59;;;;;;;5.93;1.13;;;4.40;96.30;;;;;;5026107;28;20033;-67
2023/02/01 12:05:08;;;;;;;4.78;0.93;;;4.20;96.60;;;;;;5021447;28;20033;-67
2023/02/01 12:07:54;;;;;;;4.68;1.05;;;4.10;97.00;;;;;;5022482;28;20038;-66
2023/02/01 12:10:36;;;;;;;1.75;0.68;;;4.00;97.40;;;;;;5024109;28;20033;-67
2023/02/01 12:13:21;;;;;;;4.68;1.00;;;3.70;96.90;;;;;;5027530;28;20500;-67
2023/02/01 12:16:03;;;;;;;8.65;1.35;;;3.50;97.30;;;;;;5022543;28;20034;-67
2023/02/01 12:18:29;;;;;;;3.28;0.75;;;3.50;97.80;;;;;;5025083;28;20041;-69
2023/02/01 12:21:06;;;;;;;6.55;1.25;;;3.50;98.20;;;;;;5017429;28;20044;-67
2023/02/01 12:24:09;;;;;;;2.03;0.75;;;3.40;98.10;;;;;;5019670;28;20498;-67
2023/02/01 12:26:59;;;;;;;4.68;0.80;;;3.40;98.10;;;;;;5019701;28;20485;-67
2023/02/01 12:29:33;;;;;;;5.18;0.80;;;3.40;98.20;;;;;;5015152;28;20492;-67
2023/02/01 12:32:03;;;;;;;4.35;0.55;;;3.30;98.20;;;;;;5022594;28;20355;-67
2023/02/01 12:34:56;;;;;;;3.45;0.85;;;3.20;98.40;;;;;;5024114;28;20105;-67
2023/02/01 12:38:01;;;;;;;4.25;1.00;;;3.10;98.80;;;;;;5019048;28;20033;-67
2023/02/01 12:40:39;;;;;;;4.35;0.75;;;2.90;98.60;;;;;;5022104;28;20030;-67
2023/02/01 12:43:15;;;;;;;3.25;0.75;;;2.50;98.70;;;;;;5017593;28;20025;-67
2023/02/01 12:45:44;;;;;;;0.93;0.50;;;1.70;98.30;;;;;;5022820;28;20033;-65
2023/02/01 12:48:33;;;;;;;1.27;0.50;;;1.10;98.50;;;;;;5016004;28;20533;-65
2023/02/01 12:51:09;;;;;;;1.02;0.50;;;0.80;98.90;;;;;;5017969;28;20022;-69
2023/02/01 12:54:13;;;;;;;0.22;0.22;;;0.70;99.30;;;;;;5021580;28;20127;-69
2023/02/01 12:56:49;;;;;;;0.90;0.40;;;0.60;99.40;;;;;;5015831;28;20029;-68
2023/02/01 12:59:35;;;;;;;0.30;0.30;;;0.60;99.50;;;;;;5017810;28;20041;-67
2023/02/01 13:02:33;;;;;;;0.40;0.40;;;0.70;99.60;;;;;;5021688;28;20036;-68
2023/02/01 13:05:20;;;;;;;0.43;0.32;;;0.70;99.60;;;;;;5021187;28;20049;-67
2023/02/01 13:07:59;;;;;;;3.08;0.75;;;0.80;99.70;;;;;;5024738;28;20038;-68
2023/02/01 13:10:36;;;;;;;0.82;0.50;;;0.80;99.70;;;;;;5025064;28;20414;-67
2023/02/01 13:13:16;;;;;;;3.30;1.30;;;0.90;99.80;;;;;;5021826;28;20416;-67
2023/02/01 13:16:02;;;;;;;1.48;0.60;;;1.10;99.90;;;;;;5021600;28;20026;-70
2023/02/01 13:18:37;;;;;;;3.65;0.75;;;1.20;99.80;;;;;;5022728;28;20120;-70
2023/02/01 13:21:04;;;;;;;1.13;0.50;;;1.20;99.80;;;;;;5021070;28;20040;-67
2023/02/01 13:23:34;;;;;;;1.17;0.43;;;1.30;99.80;;;;;;5018309;28;20053;-66
2023/02/01 13:25:59;;;;;;;1.53;0.60;;;1.40;99.80;;;;;;5022495;28;20045;-64
2023/02/01 13:28:40;;;;;;;1.77;0.57;;;1.50;99.80;;;;;;5020536;28;20049;-65
2023/02/01 13:31:41;;;;;;;0.30;0.28;;;1.60;99.80;;;;;;5023196;28;20078;-65
2023/02/01 13:34:48;;;;;;;1.33;0.40;;;1.70;99.80;;;;;;5015134;28;20046;-66